Terminal Aerodrome Forecast
Issued by NWS

Home | Current Version | Previous Version | Text Only | Print | Product List | Glossary On
Versions: 1 2 3 4 5 6 7 8 9 10 11 12
000
FTUS45 KREV 241700
TAFMMH
TAF
KMMH 241720Z 2418/2518 11007KT P6SM SKC
     FM242300 25008KT P6SM SKC
     FM250500 VRB04KT P6SM SKC=

USA.gov is the U.S. government's official web portal to all federal, state and local government web resources and services.